TimeCST,TemperatureF,Dew PointF,Humidity,Sea Level PressureIn,VisibilityMPH,Wind Direction,Wind SpeedMPH,Gust SpeedMPH,PrecipitationIn,Events,Conditions,WindDirDegrees,DateUTC
12:52 AM,10.9,5.0,77,30.49,4.0,NNW,4.6,-,0.00,Snow,Light Snow,340,2013-01-21 06:52:00
1:52 AM,10.9,5.0,77,30.48,7.0,North,4.6,-,0.00,,Overcast,350,2013-01-21 07:52:00
2:52 AM,10.0,3.9,76,30.48,7.0,North,5.8,-,0.00,,Overcast,350,2013-01-21 08:52:00
3:22 AM,8.6,3.2,79,30.33,2.0,ENE,8.1,-,0.00,Snow,Light Snow,60,2013-01-21 09:22:00
3:35 AM,6.8,3.2,85,30.33,1.8,NE,6.9,-,0.00,Snow,Light Snow,50,2013-01-21 09:35:00
3:49 AM,6.8,1.4,79,30.32,2.5,NE,6.9,-,0.00,Snow,Light Snow,50,2013-01-21 09:49:00
3:52 AM,6.1,1.9,83,30.47,2.5,NE,6.9,-,0.00,Snow,Light Snow,50,2013-01-21 09:52:00
4:23 AM,5.0,1.4,85,30.30,3.0,ENE,5.8,-,0.01,Snow,Light Snow,70,2013-01-21 10:23:00
4:52 AM,5.0,-0.0,80,30.45,5.0,ENE,5.8,-,0.01,,Haze,60,2013-01-21 10:52:00
5:52 AM,3.0,-2.0,80,30.45,10.0,East,5.8,-,N/A,,Overcast,80,2013-01-21 11:52:00
6:52 AM,3.0,-2.0,80,30.45,10.0,ENE,4.6,-,N/A,,Overcast,70,2013-01-21 12:52:00
7:52 AM,3.0,-2.0,80,30.43,10.0,Calm,Calm,-,N/A,,Overcast,0,2013-01-21 13:52:00
8:52 AM,3.9,-0.9,80,30.44,10.0,Calm,Calm,-,N/A,,Overcast,0,2013-01-21 14:52:00
9:52 AM,6.1,-0.9,73,30.47,10.0,Calm,Calm,-,N/A,,Overcast,0,2013-01-21 15:52:00
10:52 AM,8.1,-0.0,70,30.48,10.0,Calm,Calm,-,N/A,,Overcast,0,2013-01-21 16:52:00
11:52 AM,9.0,1.9,73,30.46,10.0,Calm,Calm,-,0.00,,Overcast,0,2013-01-21 17:52:00
12:52 PM,12.0,3.9,70,30.42,3.0,NW,5.8,-,0.00,Snow,Light Snow,310,2013-01-21 18:52:00
1:52 PM,14.0,6.1,71,30.39,8.0,WNW,8.1,-,0.00,,Overcast,300,2013-01-21 19:52:00
2:52 PM,15.1,7.0,70,30.37,10.0,NNW,8.1,-,N/A,,Overcast,330,2013-01-21 20:52:00
3:52 PM,15.1,8.1,74,30.37,5.0,WNW,4.6,-,N/A,,Haze,300,2013-01-21 21:52:00
4:52 PM,15.1,7.0,70,30.37,10.0,North,4.6,-,N/A,,Overcast,350,2013-01-21 22:52:00
5:52 PM,15.1,7.0,70,30.38,10.0,Calm,Calm,-,N/A,,Overcast,0,2013-01-21 23:52:00
6:52 PM,14.0,7.0,74,30.36,10.0,NE,5.8,-,N/A,,Overcast,50,2013-01-22 00:52:00
7:52 PM,12.9,8.1,81,30.35,10.0,ENE,6.9,-,N/A,,Overcast,70,2013-01-22 01:52:00
8:07 PM,12.2,6.8,79,30.18,10.0,ENE,9.2,-,N/A,,Overcast,70,2013-01-22 02:07:00
8:52 PM,10.9,6.1,81,30.36,10.0,ENE,9.2,-,N/A,,Overcast,70,2013-01-22 02:52:00
9:52 PM,10.9,6.1,81,30.35,10.0,ENE,6.9,-,N/A,,Overcast,70,2013-01-22 03:52:00
10:52 PM,10.9,6.1,81,30.34,10.0,ESE,5.8,-,N/A,,Overcast,110,2013-01-22 04:52:00
11:52 PM,10.9,6.1,81,30.35,10.0,ESE,4.6,-,N/A,,Overcast,120,2013-01-22 05:52:00